Time,TemperatureF,DewpointF,PressureIn,WindDirection,WindDirectionDegrees,WindSpeedMPH,WindSpeedGustMPH,Humidity,HourlyPrecipIn,Conditions,Clouds,dailyrainin,SoftwareType,DateUTC
2013-09-02 00:00:00,46.0,39.0,-100.00,South,178,17.0,32.0,77,-99.99,,,-99.99,,2013-09-02 06:00:00,
2013-09-02 00:52:00,46.0,39.0,-100.00,South,178,17.0,32.0,77,-99.99,,,-99.99,,2013-09-02 06:52:00,
2013-09-02 01:00:00,42.0,40.0,-100.00,SSE,156,19.0,30.0,93,-99.99,,,-99.99,,2013-09-02 07:00:00,
2013-09-02 01:52:00,42.0,40.0,-100.00,SSE,156,19.0,30.0,93,-99.99,,,-99.99,,2013-09-02 07:52:00,
2013-09-02 02:00:00,41.0,40.0,-100.00,SSE,150,10.0,21.0,97,-99.99,,,-99.99,,2013-09-02 08:00:00,
2013-09-02 02:52:00,41.0,40.0,-100.00,SSE,150,10.0,21.0,97,-99.99,,,-99.99,,2013-09-02 08:52:00,
2013-09-02 03:00:00,40.0,39.0,-100.00,South,169,12.0,22.0,96,-99.99,,,-99.99,,2013-09-02 09:00:00,
2013-09-02 03:53:00,40.0,39.0,-100.00,South,169,12.0,22.0,96,-99.99,,,-99.99,,2013-09-02 09:53:00,
2013-09-02 04:00:00,41.0,38.0,-100.00,South,176,9.0,16.0,90,-99.99,,,-99.99,,2013-09-02 10:00:00,
2013-09-02 04:53:00,41.0,38.0,-100.00,South,176,9.0,16.0,90,-99.99,,,-99.99,,2013-09-02 10:53:00,
2013-09-02 05:00:00,42.0,38.0,-100.00,South,184,9.0,14.0,87,-99.99,,,-99.99,,2013-09-02 11:00:00,
2013-09-02 05:52:00,42.0,38.0,-100.00,South,184,9.0,14.0,87,-99.99,,,-99.99,,2013-09-02 11:52:00,
2013-09-02 06:00:00,42.0,38.0,-100.00,South,176,10.0,15.0,87,-99.99,,,-99.99,,2013-09-02 12:00:00,
2013-09-02 06:52:00,42.0,38.0,-100.00,South,176,10.0,15.0,87,-99.99,,,-99.99,,2013-09-02 12:52:00,
2013-09-02 07:00:00,42.0,38.0,-100.00,South,176,10.0,16.0,86,-99.99,,,-99.99,,2013-09-02 13:00:00,
2013-09-02 07:52:00,42.0,38.0,-100.00,South,176,10.0,16.0,86,-99.99,,,-99.99,,2013-09-02 13:52:00,
2013-09-02 08:00:00,43.0,38.0,-100.00,South,181,6.0,11.0,82,-99.99,,,-99.99,,2013-09-02 14:00:00,
2013-09-02 08:52:00,43.0,38.0,-100.00,South,181,6.0,11.0,82,-99.99,,,-99.99,,2013-09-02 14:52:00,
2013-09-02 09:00:00,46.0,40.0,-100.00,SSE,164,4.0,8.0,80,-99.99,,,-99.99,,2013-09-02 15:00:00,
2013-09-02 09:55:00,46.0,40.0,-100.00,SSE,164,4.0,8.0,80,-99.99,,,-99.99,,2013-09-02 15:55:00,
2013-09-02 10:00:00,47.0,41.0,-100.00,SSE,155,6.0,12.0,79,-99.99,,,-99.99,,2013-09-02 16:00:00,
2013-09-02 10:53:00,47.0,41.0,-100.00,SSE,155,6.0,12.0,79,-99.99,,,-99.99,,2013-09-02 16:53:00,
2013-09-02 11:00:00,49.0,41.0,-100.00,SE,133,8.0,16.0,73,-99.99,,,-99.99,,2013-09-02 17:00:00,
2013-09-02 11:52:00,49.0,41.0,-100.00,SE,133,8.0,16.0,73,-99.99,,,-99.99,,2013-09-02 17:52:00,
2013-09-02 12:00:00,52.0,38.0,-100.00,SSE,158,3.0,15.0,60,-99.99,,,-99.99,,2013-09-02 18:00:00,
2013-09-02 12:52:00,52.0,38.0,-100.00,SSE,158,3.0,15.0,60,-99.99,,,-99.99,,2013-09-02 18:52:00,
2013-09-02 13:00:00,53.0,37.0,-100.00,NNW,342,5.0,16.0,54,-99.99,,,-99.99,,2013-09-02 19:00:00,
2013-09-02 13:52:00,53.0,37.0,-100.00,NNW,342,5.0,16.0,54,-99.99,,,-99.99,,2013-09-02 19:52:00,
2013-09-02 14:00:00,53.0,38.0,-100.00,West,264,5.0,17.0,56,-99.99,,,-99.99,,2013-09-02 20:00:00,
2013-09-02 14:52:00,53.0,38.0,-100.00,West,264,5.0,17.0,56,-99.99,,,-99.99,,2013-09-02 20:52:00,
2013-09-02 15:00:00,52.0,38.0,-100.00,NW,324,5.0,17.0,59,-99.99,,,-99.99,,2013-09-02 21:00:00,
2013-09-02 15:55:00,52.0,38.0,-100.00,NW,324,5.0,17.0,59,-99.99,,,-99.99,,2013-09-02 21:55:00,
2013-09-02 16:00:00,49.0,38.0,-100.00,ENE,68,5.0,13.0,66,-99.99,,,-99.99,,2013-09-02 22:00:00,
2013-09-02 16:54:00,49.0,38.0,-100.00,ENE,68,5.0,13.0,66,-99.99,,,-99.99,,2013-09-02 22:54:00,
2013-09-02 17:00:00,49.0,38.0,-100.00,NNW,327,10.0,19.0,65,-99.99,,,-99.99,,2013-09-02 23:00:00,
2013-09-02 17:53:00,49.0,38.0,-100.00,NNW,327,10.0,19.0,65,-99.99,,,-99.99,,2013-09-02 23:53:00,
2013-09-02 18:00:00,51.0,38.0,-100.00,NW,324,6.0,13.0,59,-99.99,,,-99.99,,2013-09-03 00:00:00,
2013-09-02 18:52:00,51.0,38.0,-100.00,NW,324,6.0,13.0,59,-99.99,,,-99.99,,2013-09-03 00:52:00,
2013-09-02 19:00:00,48.0,39.0,-100.00,NNE,16,12.0,19.0,69,-99.99,,,-99.99,,2013-09-03 01:00:00,
2013-09-02 19:52:00,48.0,39.0,-100.00,NNE,16,12.0,19.0,69,-99.99,,,-99.99,,2013-09-03 01:52:00,
2013-09-02 20:00:00,47.0,39.0,-100.00,North,11,8.0,15.0,73,-99.99,,,-99.99,,2013-09-03 02:00:00,
2013-09-02 20:52:00,47.0,39.0,-100.00,North,11,8.0,15.0,73,-99.99,,,-99.99,,2013-09-03 02:52:00,
2013-09-02 21:00:00,47.0,39.0,-100.00,NNE,31,4.0,10.0,73,-99.99,,,-99.99,,2013-09-03 03:00:00,
2013-09-02 21:55:00,47.0,39.0,-100.00,NNE,31,4.0,10.0,73,-99.99,,,-99.99,,2013-09-03 03:55:00,
2013-09-02 22:00:00,47.0,39.0,-100.00,South,177,4.0,7.0,74,-99.99,,,-99.99,,2013-09-03 04:00:00,
2013-09-02 22:53:00,47.0,39.0,-100.00,South,177,4.0,7.0,74,-99.99,,,-99.99,,2013-09-03 04:53:00,
2013-09-02 23:00:00,46.0,39.0,-100.00,SSW,197,5.0,9.0,74,-99.99,,,-99.99,,2013-09-03 05:00:00,
2013-09-02 23:52:00,46.0,39.0,-100.00,SSW,197,5.0,9.0,74,-99.99,,,-99.99,,2013-09-03 05:52:00,